createdAt,value
2023-02-13T00:03:19.447Z,101417.69
2023-02-13T00:08:21.957Z,101429.59
2023-02-13T00:13:25.603Z,101458.50
2023-02-13T00:18:31.375Z,101416.00
2023-02-13T00:23:35.185Z,101411.13
2023-02-13T00:28:37.805Z,101358.41
2023-02-13T00:33:40.619Z,101456.53
2023-02-13T00:38:45.081Z,101364.25
2023-02-13T00:43:48.912Z,101483.56
2023-02-13T00:48:51.226Z,101470.03
2023-02-13T00:53:54.210Z,101455.91
2023-02-13T00:58:56.544Z,101479.69
2023-02-13T01:04:00.872Z,101465.25
2023-02-13T01:09:04.751Z,101479.69
2023-02-13T01:14:07.899Z,101488.09
2023-02-13T01:19:10.271Z,101493.56
2023-02-13T01:24:13.172Z,101477.84
2023-02-13T01:29:15.568Z,101503.06
2023-02-13T01:34:18.457Z,101480.91
2023-02-13T01:39:22.596Z,101513.63
2023-02-13T01:44:47.143Z,101526.19
2023-02-13T01:50:00.403Z,101520.16
2023-02-13T01:55:05.453Z,101541.06
2023-02-13T02:00:12.657Z,101543.16
2023-02-13T02:05:24.474Z,101540.56
2023-02-13T02:10:28.499Z,101513.75
2023-02-13T02:15:31.410Z,101530.59
2023-02-13T02:21:25.039Z,101535.81
2023-02-13T02:27:05.446Z,101539.44
2023-02-13T02:32:41.142Z,101493.91
2023-02-13T02:38:11.584Z,101520.78
2023-02-13T02:43:37.329Z,101530.69
2023-02-13T02:49:27.870Z,101515.19
2023-02-13T02:55:00.473Z,101491.13
2023-02-13T03:00:25.558Z,101495.31
2023-02-13T03:05:51.465Z,101544.22
2023-02-13T03:11:13.492Z,101499.38
2023-02-13T03:16:41.964Z,101519.56
2023-02-13T03:22:08.767Z,101519.94
2023-02-13T03:27:14.116Z,101526.66
2023-02-13T03:32:53.972Z,101533.69
2023-02-13T03:38:05.851Z,101521.88
2023-02-13T03:43:17.704Z,101536.28
2023-02-13T03:48:45.503Z,101497.84
2023-02-13T03:53:56.039Z,101528.03
2023-02-13T03:59:17.377Z,101542.59
2023-02-13T04:04:53.807Z,101540.13
2023-02-13T04:10:05.790Z,101558.22
2023-02-13T04:15:17.412Z,101574.69
2023-02-13T04:20:21.181Z,101571.06
2023-02-13T04:25:23.685Z,101562.00
2023-02-13T04:30:28.320Z,101553.69
2023-02-13T04:35:32.178Z,101540.91
2023-02-13T04:40:35.341Z,101578.63
2023-02-13T04:45:39.481Z,101611.56
2023-02-13T04:50:43.188Z,101578.81
2023-02-13T04:55:46.198Z,101608.81
2023-02-13T05:00:49.299Z,101604.06
2023-02-13T05:05:51.577Z,101598.72
2023-02-13T05:10:53.943Z,101588.44
2023-02-13T05:15:56.896Z,101611.47
2023-02-13T05:21:19.777Z,101630.31
2023-02-13T05:26:24.755Z,101502.97
2023-02-13T05:31:33.569Z,101551.31
2023-02-13T05:36:37.382Z,101598.72
2023-02-13T05:41:45.004Z,101600.81
2023-02-13T05:46:58.889Z,101626.50
2023-02-13T05:52:03.866Z,101640.72
2023-02-13T05:57:16.868Z,101649.81
2023-02-13T06:02:22.370Z,101537.16
2023-02-13T06:13:12.295Z,101636.16
2023-02-13T06:23:48.074Z,101545.59
2023-02-13T06:28:52.448Z,101531.38
2023-02-13T06:33:55.711Z,101588.88
2023-02-13T06:38:58.846Z,101540.94
2023-02-13T06:44:01.914Z,101616.06
2023-02-13T06:49:08.193Z,101516.44
2023-02-13T07:00:06.294Z,101603.97
2023-02-13T07:05:10.066Z,101608.84
2023-02-13T07:10:13.998Z,101595.59
2023-02-13T07:15:17.090Z,101584.09
2023-02-13T07:20:20.311Z,101525.22
2023-02-13T07:25:27.360Z,101516.31
2023-02-13T07:30:38.409Z,101589.06
2023-02-13T07:41:16.405Z,101587.16
2023-02-13T07:46:21.253Z,101631.47
2023-02-13T07:51:27.805Z,101605.03
2023-02-13T07:56:31.337Z,101549.59
2023-02-13T08:01:34.958Z,101532.66
2023-02-13T08:06:53.066Z,101600.56
2023-02-13T08:19:08.695Z,101546.44
2023-02-13T08:24:23.289Z,101565.97
2023-02-13T08:29:28.906Z,101567.91
2023-02-13T08:34:34.196Z,101503.56
2023-02-13T08:39:37.013Z,101551.69
2023-02-13T08:44:48.824Z,101602.84
2023-02-13T08:49:54.846Z,101517.03
2023-02-13T08:55:26.563Z,101617.38
2023-02-13T09:01:16.593Z,101516.06
2023-02-13T09:07:00.345Z,101614.78
2023-02-13T09:13:00.761Z,101453.69
2023-02-13T09:18:07.939Z,101440.50
2023-02-13T09:23:18.054Z,101592.25
2023-02-13T09:28:21.637Z,101512.50
2023-02-13T09:33:29.529Z,101550.97
2023-02-13T09:38:39.409Z,101535.47
2023-02-13T09:44:03.670Z,101445.50
2023-02-13T09:49:21.674Z,101576.00
2023-02-13T09:54:26.908Z,101587.13
2023-02-13T10:00:14.047Z,101605.84
2023-02-13T10:05:35.788Z,101603.63
2023-02-13T10:10:52.258Z,101608.75
2023-02-13T10:16:07.013Z,101602.69
2023-02-13T10:21:15.021Z,101578.75
2023-02-13T10:26:24.072Z,101622.63
2023-02-13T10:31:27.271Z,101607.91
2023-02-13T10:36:56.014Z,101616.59
2023-02-13T10:42:27.871Z,101617.16
2023-02-13T10:47:32.617Z,101602.41
2023-02-13T10:53:08.842Z,101615.91
2023-02-13T10:58:30.051Z,101529.38
2023-02-13T11:03:40.486Z,101582.63
2023-02-13T11:08:50.404Z,101624.44
2023-02-13T11:14:43.190Z,101632.56
2023-02-13T11:19:56.022Z,101637.09
2023-02-13T11:25:03.649Z,101655.25
2023-02-13T11:30:28.909Z,101656.59
2023-02-13T11:35:47.546Z,101661.81
2023-02-13T11:41:15.470Z,101659.47
2023-02-13T11:46:29.092Z,101513.69
2023-02-13T11:52:03.098Z,101672.63
2023-02-13T11:57:33.354Z,101596.28
2023-02-13T12:02:51.382Z,101581.78
2023-02-13T12:08:02.824Z,101629.03
2023-02-13T12:13:21.852Z,101684.78
2023-02-13T12:18:38.089Z,101690.56
2023-02-13T12:23:52.621Z,101705.13
2023-02-13T12:29:28.580Z,101685.97
2023-02-13T12:35:01.336Z,101704.72
2023-02-13T12:40:36.612Z,101713.25
2023-02-13T12:45:53.264Z,101697.53
2023-02-13T12:51:02.552Z,101725.84
2023-02-13T12:56:23.829Z,101734.06
2023-02-13T13:01:45.850Z,101729.63
2023-02-13T13:07:02.054Z,101737.09
2023-02-13T13:12:27.431Z,101749.75
2023-02-13T13:17:32.182Z,101731.75
2023-02-13T13:23:03.712Z,101686.00
2023-02-13T13:28:19.446Z,101634.63
2023-02-13T13:33:27.286Z,101690.75
2023-02-13T13:38:43.585Z,101754.09
2023-02-13T13:44:24.407Z,101758.16
2023-02-13T13:49:54.433Z,101768.44
2023-02-13T13:55:00.876Z,101756.41
2023-02-13T14:00:13.911Z,101763.28
2023-02-13T14:05:23.180Z,101768.16
2023-02-13T14:10:29.871Z,101760.59
2023-02-13T14:15:38.950Z,101767.53
2023-02-13T14:20:56.749Z,101749.75
2023-02-13T14:26:18.111Z,101777.03
2023-02-13T14:31:39.573Z,101783.28
2023-02-13T14:36:47.474Z,101790.78
2023-02-13T14:41:57.029Z,101794.72
2023-02-13T14:47:14.185Z,101781.94
2023-02-13T14:52:34.178Z,101720.84
2023-02-13T14:57:43.469Z,101813.56
2023-02-13T15:02:53.246Z,101754.53
2023-02-13T15:08:18.239Z,101805.41
2023-02-13T15:13:36.332Z,101792.44
2023-02-13T15:18:57.608Z,101818.88
2023-02-13T15:24:00.402Z,101822.56
2023-02-13T15:29:25.859Z,101781.63
2023-02-13T15:34:34.894Z,101846.59
2023-02-13T15:39:37.649Z,101805.03
2023-02-13T15:44:41.375Z,101810.94
2023-02-13T15:49:47.881Z,101817.19
2023-02-13T15:54:53.087Z,101861.28
2023-02-13T15:59:57.709Z,101827.66
2023-02-13T16:05:02.710Z,101860.22
2023-02-13T16:10:28.638Z,101871.97
2023-02-13T16:15:34.330Z,101874.94
2023-02-13T16:20:38.516Z,101745.03
2023-02-13T16:25:42.965Z,101883.00
2023-02-13T16:30:51.510Z,101880.09
2023-02-13T16:36:00.896Z,101807.84
2023-02-13T16:41:26.329Z,101870.94
2023-02-13T16:46:40.007Z,101890.34
2023-02-13T16:51:51.590Z,101889.16
2023-02-13T16:57:15.043Z,101879.47
2023-02-13T17:02:39.098Z,101898.41
2023-02-13T17:07:51.284Z,101912.41
2023-02-13T17:12:55.615Z,101836.38
2023-02-13T17:17:59.053Z,101872.25
2023-02-13T17:23:06.435Z,101869.28
2023-02-13T17:28:13.489Z,101885.06
2023-02-13T17:33:21.396Z,101865.88
2023-02-13T17:38:24.308Z,101890.63
2023-02-13T17:43:28.318Z,101886.72
2023-02-13T17:48:30.842Z,101895.81
2023-02-13T17:53:33.356Z,101850.59
2023-02-13T17:58:35.932Z,101855.44
2023-02-13T18:03:39.607Z,101843.03
2023-02-13T18:08:42.606Z,101865.41
2023-02-13T18:13:48.285Z,101876.19
2023-02-13T18:18:50.712Z,101848.84
2023-02-13T18:23:54.035Z,101888.13
2023-02-13T18:28:56.570Z,101876.06
2023-02-13T18:33:59.124Z,101858.50
2023-02-13T18:39:01.620Z,101829.97
2023-02-13T18:44:04.166Z,101840.50
2023-02-13T18:49:06.941Z,101879.94
2023-02-13T18:54:09.510Z,101859.06
2023-02-13T18:59:12.034Z,101866.50
2023-02-13T19:04:14.503Z,101852.16
2023-02-13T19:09:17.870Z,101811.16
2023-02-13T19:14:20.959Z,101826.84
2023-02-13T19:19:23.394Z,101851.19
2023-02-13T19:24:26.044Z,101846.16
2023-02-13T19:29:28.681Z,101849.44
2023-02-13T19:34:31.374Z,101836.00
2023-02-13T19:39:33.819Z,101855.50
2023-02-13T19:44:36.382Z,101788.06
2023-02-13T19:49:38.761Z,101840.81
2023-02-13T19:54:41.286Z,101797.06
2023-02-13T19:59:43.677Z,101799.75
2023-02-13T20:04:46.560Z,101793.16
2023-02-13T20:09:49.147Z,101779.97
2023-02-13T20:14:51.763Z,101801.78
2023-02-13T20:19:54.626Z,101787.34
2023-02-13T20:24:57.800Z,101807.78
2023-02-13T20:30:06.925Z,101768.50
2023-02-13T20:35:10.351Z,101787.66
2023-02-13T20:40:13.847Z,101752.38
2023-02-13T20:45:17.198Z,101755.63
2023-02-13T20:50:19.537Z,101778.34
2023-02-13T20:55:23.073Z,101720.53
2023-02-13T21:00:25.517Z,101726.59
2023-02-13T21:05:28.655Z,101758.38
2023-02-13T21:10:31.897Z,101708.72
2023-02-13T21:15:34.794Z,101742.53
2023-02-13T21:20:37.780Z,101732.22
2023-02-13T21:25:40.158Z,101696.53
2023-02-13T21:30:44.015Z,101707.34
2023-02-13T21:35:47.038Z,101676.53
2023-02-13T21:40:49.672Z,101706.66
2023-02-13T21:45:52.494Z,101689.94
2023-02-13T21:50:55.037Z,101697.00
2023-02-13T21:55:57.476Z,101662.19
2023-02-13T22:01:00.463Z,101680.53
2023-02-13T22:06:03.447Z,101667.84
2023-02-13T22:11:07.449Z,101644.16
2023-02-13T22:16:15.196Z,101624.66
2023-02-13T22:21:20.337Z,101655.25
2023-02-13T22:26:27.368Z,101646.84
2023-02-13T22:31:30.454Z,101625.28
2023-02-13T22:36:41.168Z,101637.81
2023-02-13T22:41:45.990Z,101615.41
2023-02-13T22:46:48.398Z,101628.25
2023-02-13T22:51:51.551Z,101607.63
2023-02-13T22:56:53.946Z,101614.31
2023-02-13T23:01:57.326Z,101601.06
2023-02-13T23:06:59.822Z,101574.50
2023-02-13T23:12:21.776Z,101624.03
2023-02-13T23:17:44.200Z,101569.47
2023-02-13T23:22:47.182Z,101597.81
2023-02-13T23:27:49.833Z,101593.56
2023-02-13T23:32:53.287Z,101577.94
2023-02-13T23:37:56.656Z,101555.47
2023-02-13T23:42:59.292Z,101521.19
2023-02-13T23:48:01.805Z,101502.31
2023-02-13T23:53:04.174Z,101514.81
2023-02-13T23:58:06.555Z,101509.38
